^^
MeteoGriva-Weather Station Historical Data
Daily Summary for July 15, 2020 Units:  Metric    English   Both
Daily Weekly Monthly Yearly Custom
  High: Low: Average:
Temperature: 16.5 °C 9.2 °C 12.2 °C
Dew Point: 10.8 °C 6.7 °C 8.3 °C
Humidity: 88% 67% 78%
Wind Speed: 2.5km/h 0km/h 0.1km/h
Wind Gust: 16.3km/h - -
Wind- - SE
Pressure: 1023.4 hPa 1020.0 hPa -
Precipitation: 0.0 mm    
Historical Graphs
 
 
Tabular Data for July 15, 2020
Time Temperature Dew Point Pressure Wind Wind Speed Wind Gust Humidity Rainfall Rate (Hourly) solar
00:04 10.3 °C 7.3 °C 1023.4 hPa Calm     81.4% 0.0 mm 0 W/m2
00:09 10.2 °C 7.3 °C 1023.4 hPa Calm     82% 0.0 mm 0 W/m2
00:14 10.2 °C 7.3 °C 1023.4 hPa Calm     82% 0.0 mm 0 W/m2
00:19 10.2 °C 7.3 °C 1023.4 hPa Calm     82% 0.0 mm 0 W/m2
00:24 10.2 °C 7.3 °C 1023.4 hPa Calm     82% 0.0 mm 0 W/m2
00:29 10.3 °C 7.4 °C 1023.4 hPa Calm     82% 0.0 mm 0 W/m2
00:34 10.3 °C 7.2 °C 1023.4 hPa Calm     81.1% 0.0 mm 0 W/m2
00:39 10.3 °C 7.2 °C 1023.4 hPa Calm     81% 0.0 mm 0 W/m2
00:44 10.3 °C 7.2 °C 1023.4 hPa Calm     81% 0.0 mm 0 W/m2
00:49 10.4 °C 7.3 °C 1023.4 hPa Calm     81% 0.0 mm 0 W/m2
00:54 10.4 °C 7.4 °C 1023.4 hPa Calm     81.7% 0.0 mm 0 W/m2
00:59 10.3 °C 7.4 °C 1023.4 hPa Calm     82% 0.0 mm 0 W/m2
01:04 10.3 °C 7.4 °C 1023.4 hPa Calm     82% 0.0 mm 0 W/m2
01:09 10.4 °C 7.3 °C 1023.4 hPa Calm     81% 0.0 mm 0 W/m2
01:14 10.4 °C 7.3 °C 1023.0 hPa Calm     81% 0.0 mm 0 W/m2
01:19 10.4 °C 7.4 °C 1023.0 hPa Calm     81.3% 0.0 mm 0 W/m2
01:24 10.3 °C 7.3 °C 1023.0 hPa Calm     81.3% 0.0 mm 0 W/m2
01:29 10.2 °C 7.3 °C 1023.4 hPa Calm     82% 0.0 mm 0 W/m2
01:34 10.2 °C 7 °C 1023.0 hPa Calm     80.7% 0.0 mm 0 W/m2
01:39 10.2 °C 7.2 °C 1023.4 hPa Calm     81.5% 0.0 mm 0 W/m2
01:44 10 °C 7.4 °C 1023.0 hPa Calm     84% 0.0 mm 0 W/m2
01:49 9.6 °C 7 °C 1023.4 hPa Calm     84% 0.0 mm 0 W/m2
01:54 9.6 °C 7 °C 1023.0 hPa Calm     84% 0.0 mm 0 W/m2
01:59 9.6 °C 6.9 °C 1023.4 hPa Calm     83.4% 0.0 mm 0 W/m2
02:04 9.7 °C 6.8 °C 1023.4 hPa Calm     82.2% 0.0 mm 0 W/m2
02:09 10.1 °C 7.2 °C 1023.4 hPa Calm     82% 0.0 mm 0 W/m2
02:14 10 °C 7.2 °C 1023.0 hPa Calm     83% 0.0 mm 0 W/m2
02:19 10 °C 7.2 °C 1023.0 hPa Calm     83% 0.0 mm 0 W/m2
02:24 9.9 °C 7.1 °C 1023.4 hPa Calm     83% 0.0 mm 0 W/m2
02:29 9.8 °C 7.1 °C 1023.4 hPa Calm     83% 0.0 mm 0 W/m2
02:34 9.7 °C 7 °C 1023.4 hPa Calm     83% 0.0 mm 0 W/m2
02:39 9.7 °C 7 °C 1023.4 hPa Calm     83.1% 0.0 mm 0 W/m2
02:44 9.7 °C 7 °C 1023.0 hPa Calm     83.3% 0.0 mm 0 W/m2
02:49 9.7 °C 7 °C 1023.0 hPa Calm     83% 0.0 mm 0 W/m2
02:54 9.7 °C 6.9 °C 1023.0 hPa Calm     82.7% 0.0 mm 0 W/m2
02:59 9.8 °C 6.8 °C 1023.0 hPa Calm     82% 0.0 mm 0 W/m2
03:04 9.9 °C 6.9 °C 1023.0 hPa Calm     81.7% 0.0 mm 0 W/m2
03:09 10.1 °C 7.2 °C 1023.0 hPa Calm     82% 0.0 mm 0 W/m2
03:14 10.1 °C 7.2 °C 1023.0 hPa Calm     82.1% 0.0 mm 0 W/m2
03:19 10 °C 7.2 °C 1023.0 hPa Calm     83% 0.0 mm 0 W/m2
03:24 10 °C 7.2 °C 1022.7 hPa Calm     83% 0.0 mm 0 W/m2
03:29 9.8 °C 7.1 °C 1022.7 hPa Calm     83% 0.0 mm 0 W/m2
03:34 9.8 °C 7.1 °C 1022.7 hPa Calm     83% 0.0 mm 0 W/m2
03:39 9.9 °C 7 °C 1022.7 hPa Calm     82.1% 0.0 mm 0 W/m2
03:44 9.9 °C 7 °C 1022.4 hPa Calm     82% 0.0 mm 0 W/m2
03:49 10 °C 7.2 °C 1022.4 hPa Calm     82.4% 0.0 mm 0 W/m2
03:54 10 °C 7.1 °C 1022.4 hPa Calm     82% 0.0 mm 0 W/m2
03:59 10.1 °C 7.1 °C 1022.4 hPa Calm     81.7% 0.0 mm 0 W/m2
04:04 10.1 °C 7 °C 1022.4 hPa Calm     81% 0.0 mm 0 W/m2
04:09 10.3 °C 7.4 °C 1022.4 hPa Calm     81.8% 0.0 mm 0 W/m2
04:14 10.3 °C 7.4 °C 1022.4 hPa Calm     82% 0.0 mm 0 W/m2
04:19 10.3 °C 7.4 °C 1022.4 hPa Calm     82% 0.0 mm 0 W/m2
04:24 10.2 °C 7.3 °C 1022.4 hPa Calm     82% 0.0 mm 0 W/m2
04:29 10.2 °C 7.3 °C 1022.4 hPa Calm     82% 0.0 mm 0 W/m2
04:34 10.2 °C 7.3 °C 1022.4 hPa Calm     82.2% 0.0 mm 0 W/m2
04:39 10.1 °C 7.5 °C 1022.4 hPa Calm     83.8% 0.0 mm 0 W/m2
04:44 10 °C 7.4 °C 1022.4 hPa Calm     84% 0.0 mm 0 W/m2
04:49 9.6 °C 7 °C 1022.4 hPa Calm     84% 0.0 mm 0 W/m2
04:54 9.6 °C 7 °C 1022.4 hPa Calm     84% 0.0 mm 0 W/m2
04:59 9.6 °C 7 °C 1022.4 hPa Calm     84.2% 0.0 mm 0 W/m2
05:04 9.6 °C 7 °C 1022.4 hPa Calm     84% 0.0 mm 0 W/m2
05:09 9.5 °C 6.9 °C 1022.4 hPa Calm     84% 0.0 mm 0 W/m2
05:14 9.5 °C 6.9 °C 1022.4 hPa Calm     84% 0.0 mm 0 W/m2
05:19 9.5 °C 6.9 °C 1022.4 hPa Calm     84% 0.0 mm 0 W/m2
05:24 9.5 °C 7 °C 1022.4 hPa Calm     84.7% 0.0 mm 0 W/m2
05:29 9.4 °C 6.9 °C 1022.4 hPa Calm     84.3% 0.0 mm 0 W/m2
05:34 9.4 °C 7 °C 1022.4 hPa Calm     84.8% 0.0 mm 0 W/m2
05:39 9.4 °C 7 °C 1022.4 hPa Calm     85% 0.0 mm 0 W/m2
05:44 9.4 °C 7 °C 1022.4 hPa Calm     85% 0.0 mm 0 W/m2
05:49 9.6 °C 7.2 °C 1022.4 hPa Calm     85% 0.0 mm 0 W/m2
05:54 9.7 °C 7.3 °C 1022.4 hPa Calm     85% 0.0 mm 0 W/m2
05:59 9.7 °C 7.2 °C 1022.4 hPa Calm     84.3% 0.0 mm 0 W/m2
06:04 9.6 °C 7.2 °C 1022.4 hPa Calm     85% 0.0 mm 0 W/m2
06:09 9.5 °C 7.1 °C 1022.7 hPa Calm     85.2% 0.0 mm 0 W/m2
06:14 9.4 °C 7.2 °C 1022.4 hPa Calm     86% 0.0 mm 0 W/m2
06:19 9.5 °C 7.4 °C 1022.4 hPa Calm     87% 0.0 mm 0 W/m2
06:24 9.5 °C 7.4 °C 1022.4 hPa Calm     87% 0.0 mm 0 W/m2
06:29 9.4 °C 7.4 °C 1022.4 hPa Calm     87.3% 0.0 mm 0 W/m2
06:34 9.4 °C 7.5 °C 1022.4 hPa Calm     88% 0.0 mm 0 W/m2
06:39 9.4 °C 7.5 °C 1022.4 hPa Calm     88% 0.0 mm 0 W/m2
06:44 9.3 °C 7.3 °C 1022.4 hPa Calm     87.6% 0.0 mm 0 W/m2
06:49 9.2 °C 7.1 °C 1022.4 hPa Calm     86.6% 0.0 mm 0 W/m2
06:54 9.2 °C 6.8 °C 1022.4 hPa Calm     85% 0.0 mm 0 W/m2
06:59 9.3 °C 6.8 °C 1022.4 hPa Calm     84.3% 0.0 mm 0 W/m2
07:04 9.4 °C 6.9 °C 1022.4 hPa Calm     84.2% 0.0 mm 0 W/m2
07:09 9.6 °C 7.2 °C 1022.4 hPa Calm     85% 0.0 mm 0 W/m2
07:14 9.6 °C 7.2 °C 1022.4 hPa Calm     85% 0.0 mm 0 W/m2
07:19 9.6 °C 7.3 °C 1022.4 hPa Calm     85.7% 0.0 mm 0 W/m2
07:24 9.5 °C 7.4 °C 1022.4 hPa Calm     86.9% 0.0 mm 3 W/m2
07:29 9.6 °C 7.4 °C 1022.4 hPa Calm     86.7% 0.0 mm 6 W/m2
07:34 9.5 °C 7.4 °C 1022.4 hPa Calm     86.7% 0.0 mm 10 W/m2
07:39 9.5 °C 7.4 °C 1022.7 hPa Calm     86.7% 0.0 mm 17 W/m2
07:44 9.5 °C 7.5 °C 1022.7 hPa Calm     87.3% 0.0 mm 22 W/m2
07:49 10 °C 7.7 °C 1022.7 hPa Calm     85.9% 0.0 mm 27 W/m2
07:54 10.2 °C 7.5 °C 1022.7 hPa Calm     83.4% 0.0 mm 33 W/m2
07:59 10.3 °C 7.5 °C 1022.7 hPa Calm     82.6% 0.0 mm 38 W/m2
08:04 10.5 °C 7.6 °C 1022.7 hPa Calm     81.6% 0.0 mm 43 W/m2
08:09 11.4 °C 7.9 °C 1022.7 hPa Calm     79% 0.0 mm 48 W/m2
08:14 12.1 °C 8.1 °C 1023.0 hPa Calm     76.6% 0.0 mm 53 W/m2
08:19 12.3 °C 7.9 °C 1023.0 hPa Calm     74.9% 0.0 mm 57 W/m2
08:24 12.6 °C 7.9 °C 1023.0 hPa Calm     72.9% 0.0 mm 62 W/m2
08:29 13.9 °C 8.9 °C 1023.0 hPa Calm     72% 0.0 mm 65 W/m2
08:34 14.3 °C 9.4 °C 1023.0 hPa Calm     72% 0.0 mm 68 W/m2
08:39 14.3 °C 9.5 °C 1023.0 hPa Calm     73% 0.0 mm 72 W/m2
08:44 14.2 °C 9.4 °C 1023.0 hPa Calm     73% 0.0 mm 75 W/m2
08:49 14.1 °C 9.3 °C 1023.0 hPa Calm     72.9% 0.0 mm 77 W/m2
08:54 14.1 °C 9.5 °C 1023.0 hPa Calm     73.8% 0.0 mm 80 W/m2
08:59 14.1 °C 9.2 °C 1023.0 hPa Calm     72.3% 0.0 mm 81 W/m2
09:04 14.1 °C 9.2 °C 1023.0 hPa Calm     72.6% 0.0 mm 83 W/m2
09:09 14 °C 9 °C 1023.0 hPa Calm     71.9% 0.0 mm 83 W/m2
09:14 13.9 °C 8.8 °C 1023.0 hPa Calm     71.7% 0.0 mm 85 W/m2
09:19 14 °C 9 °C 1023.4 hPa Calm     71.9% 0.0 mm 85 W/m2
09:24 14 °C 9 °C 1023.0 hPa Calm     72.1% 0.0 mm 86 W/m2
09:29 13.9 °C 9.1 °C 1023.0 hPa Calm     72.8% 0.0 mm 86 W/m2
09:34 13.9 °C 9.1 °C 1023.0 hPa SSE 0.5 km/h 4 km/h 72.9% 0.0 mm 88 W/m2
09:39 13.9 °C 9.1 °C 1022.7 hPa SE 0.1 km/h 7.9 km/h 73% 0.0 mm 88 W/m2
09:44 13.9 °C 9.1 °C 1023.0 hPa Calm   4 km/h 72.8% 0.0 mm 89 W/m2
09:49 13.9 °C 9.1 °C 1023.0 hPa SE 0.7 km/h 7.9 km/h 72.9% 0.0 mm 90 W/m2
09:54 13.9 °C 9.1 °C 1023.0 hPa SSE 1.2 km/h 7.9 km/h 73.2% 0.0 mm 91 W/m2
09:59 13.9 °C 9.3 °C 1023.0 hPa ESE 0.8 km/h 7.9 km/h 73.7% 0.0 mm 92 W/m2
10:04 13.9 °C 9.6 °C 1023.0 hPa Calm   4 km/h 75.4% 0.0 mm 93 W/m2
10:09 13.7 °C 9.2 °C 1023.0 hPa Calm     74.4% 0.0 mm 95 W/m2
10:14 13.5 °C 9.5 °C 1023.0 hPa NE 0.3 km/h 4 km/h 76.7% 0.0 mm 97 W/m2
10:19 13.4 °C 9.5 °C 1023.0 hPa Calm   4 km/h 77.7% 0.0 mm 99 W/m2
10:24 13.3 °C 9.1 °C 1023.0 hPa Calm     75.6% 0.0 mm 102 W/m2
10:29 13.6 °C 9.2 °C 1023.0 hPa ESE 0.7 km/h 7.9 km/h 74.7% 0.0 mm 105 W/m2
10:34 14 °C 9.6 °C 1023.0 hPa Calm   4 km/h 75% 0.0 mm 107 W/m2
10:39 14 °C 9.6 °C 1023.0 hPa ENE 0.4 km/h 4 km/h 74.9% 0.0 mm 111 W/m2
10:44 13.8 °C 9.8 °C 1023.0 hPa Calm   4 km/h 77.1% 0.0 mm 115 W/m2
10:49 13.8 °C 9.4 °C 1023.0 hPa SE 0.5 km/h 7.9 km/h 74.9% 0.0 mm 119 W/m2
10:54 13.9 °C 9.2 °C 1023.0 hPa East 0.5 km/h 7.9 km/h 73.3% 0.0 mm 124 W/m2
10:59 13.9 °C 9.3 °C 1023.0 hPa East 0.2 km/h 7.9 km/h 74% 0.0 mm 128 W/m2
11:04 13.9 °C 9.5 °C 1023.0 hPa Calm     74.8% 0.0 mm 134 W/m2
11:09 14.2 °C 9.5 °C 1022.7 hPa SSE 0.4 km/h 7.9 km/h 73.4% 0.0 mm 138 W/m2
11:14 14.5 °C 9.7 °C 1023.0 hPa Calm     72.9% 0.0 mm 143 W/m2
11:19 14.6 °C 9.5 °C 1022.7 hPa Calm   4 km/h 71.4% 0.0 mm 150 W/m2
11:24 14.8 °C 9.4 °C 1023.0 hPa Calm     70.1% 0.0 mm 150 W/m2
11:29 15.1 °C 9.8 °C 1022.7 hPa Calm     70.3% 0.0 mm 125 W/m2
11:34 15.2 °C 10.4 °C 1022.4 hPa Calm   4 km/h 73.2% 0.0 mm 96 W/m2
11:39 15.1 °C 10.3 °C 1022.4 hPa SSE 0.7 km/h 7.9 km/h 72.9% 0.0 mm 95 W/m2
11:44 14.9 °C 10.4 °C 1022.4 hPa NE 0.9 km/h 12.2 km/h 74.1% 0.0 mm 95 W/m2
11:49 14.7 °C 10.2 °C 1022.4 hPa ENE 0.5 km/h 12.2 km/h 74.7% 0.0 mm 96 W/m2
11:54 14.5 °C 9.9 °C 1022.4 hPa ESE 0.1 km/h 7.9 km/h 74% 0.0 mm 159 W/m2
11:59 14.5 °C 9.9 °C 1022.4 hPa Calm   7.9 km/h 73.9% 0.0 mm 199 W/m2
12:04 14.5 °C 9.9 °C 1022.4 hPa ESE 1 km/h 7.9 km/h 74.2% 0.0 mm 206 W/m2
12:09 14.5 °C 10 °C 1022.0 hPa Calm   7.9 km/h 74.4% 0.0 mm 219 W/m2
12:14 14.6 °C 10 °C 1022.0 hPa SSE 0.2 km/h 7.9 km/h 74.1% 0.0 mm 230 W/m2
12:19 14.6 °C 9.8 °C 1022.0 hPa South 0.4 km/h 7.9 km/h 73.2% 0.0 mm 244 W/m2
12:24 14.7 °C 9.8 °C 1021.7 hPa Calm   7.9 km/h 72.3% 0.0 mm 255 W/m2
12:29 15 °C 10 °C 1021.7 hPa Calm     71.9% 0.0 mm 271 W/m2
12:34 15.7 °C 10.7 °C 1021.7 hPa Calm     71.8% 0.0 mm 284 W/m2
12:39 15.7 °C 10.5 °C 1021.3 hPa South 0.4 km/h 12.2 km/h 71.1% 0.0 mm 302 W/m2
12:44 15.7 °C 10.2 °C 1021.3 hPa South 0.3 km/h 4 km/h 69.7% 0.0 mm 308 W/m2
12:49 15.7 °C 10.4 °C 1021.3 hPa SE 1 km/h 7.9 km/h 70.7% 0.0 mm 320 W/m2
12:54 15.8 °C 10.5 °C 1021.3 hPa ESE 0.7 km/h 12.2 km/h 70.9% 0.0 mm 320 W/m2
12:59 15.8 °C 10.5 °C 1021.3 hPa Calm   4 km/h 70.6% 0.0 mm 326 W/m2
13:04 15.9 °C 10.2 °C 1021.3 hPa ESE 1.1 km/h 7.9 km/h 69.1% 0.0 mm 331 W/m2
13:09 15.8 °C 10.8 °C 1021.0 hPa ENE 0.9 km/h 7.9 km/h 72% 0.0 mm 332 W/m2
13:14 15.2 °C 10 °C 1021.3 hPa SE 2.2 km/h 12.2 km/h 70.9% 0.0 mm 328 W/m2
13:19 15.3 °C 10.2 °C 1021.0 hPa East 0.4 km/h 7.9 km/h 71.5% 0.0 mm 324 W/m2
13:24 15.3 °C 10.3 °C 1021.0 hPa Calm   4 km/h 72% 0.0 mm 318 W/m2
13:29 15.3 °C 10.2 °C 1021.0 hPa Calm     71.6% 0.0 mm 327 W/m2
13:34 15.4 °C 10.2 °C 1021.0 hPa Calm   7.9 km/h 70.8% 0.0 mm 321 W/m2
13:39 15.4 °C 10 °C 1020.7 hPa Calm     69.9% 0.0 mm 328 W/m2
13:44 15.6 °C 10.1 °C 1021.0 hPa SE 0.6 km/h 7.9 km/h 70% 0.0 mm 332 W/m2
13:49 15.6 °C 10.1 °C 1020.7 hPa South 0.4 km/h 7.9 km/h 69.8% 0.0 mm 319 W/m2
13:54 15.8 °C 10.1 °C 1020.7 hPa Calm   4 km/h 69% 0.0 mm 318 W/m2
13:59 15.9 °C 10.1 °C 1020.7 hPa Calm   7.9 km/h 68.6% 0.0 mm 322 W/m2
14:04 16 °C 10.3 °C 1020.7 hPa Calm   4 km/h 68.9% 0.0 mm 315 W/m2
14:09 16 °C 10.3 °C 1020.7 hPa NE 0.4 km/h 4 km/h 69.1% 0.0 mm 304 W/m2
14:14 15.2 °C 9.8 °C 1020.7 hPa NNE 1 km/h 7.9 km/h 70.5% 0.0 mm 301 W/m2
14:19 15.2 °C 9.8 °C 1020.3 hPa SSW 0.2 km/h 4 km/h 70% 0.0 mm 285 W/m2
14:24 15.3 °C 9.5 °C 1020.3 hPa SSE 0.2 km/h 4 km/h 68.9% 0.0 mm 299 W/m2
14:29 15.4 °C 9.6 °C 1020.3 hPa SE 1.1 km/h 12.2 km/h 68.3% 0.0 mm 303 W/m2
14:34 16.2 °C 10.4 °C 1020.3 hPa East 0.5 km/h 7.9 km/h 68.4% 0.0 mm 300 W/m2
14:39 16.3 °C 10.4 °C 1020.3 hPa SE 0.2 km/h 4 km/h 68.2% 0.0 mm 301 W/m2
14:44 16.3 °C 10.3 °C 1020.3 hPa SE 0.3 km/h 4 km/h 67.7% 0.0 mm 295 W/m2
14:49 16.3 °C 10.2 °C 1020.3 hPa South 0.1 km/h 4 km/h 67.1% 0.0 mm 291 W/m2
14:54 16.4 °C 10.3 °C 1020.3 hPa SE 0.3 km/h 4 km/h 67.1% 0.0 mm 288 W/m2
14:59 16.5 °C 10.4 °C 1020.3 hPa SSE 0.6 km/h 4 km/h 67% 0.0 mm 279 W/m2
15:04 16.4 °C 10.4 °C 1020.3 hPa SE 0.6 km/h 7.9 km/h 67.4% 0.0 mm 270 W/m2
15:09 16.4 °C 10.4 °C 1020.0 hPa SSE 0.3 km/h 4 km/h 67.4% 0.0 mm 267 W/m2
15:14 16.2 °C 10.3 °C 1020.3 hPa South 2.3 km/h 16.3 km/h 67.8% 0.0 mm 216 W/m2
15:19 16.2 °C 10.2 °C 1020.0 hPa SSE 0.5 km/h 7.9 km/h 67.4% 0.0 mm 213 W/m2
15:24 16.2 °C 10.4 °C 1020.3 hPa SSE 2.5 km/h 7.9 km/h 68.8% 0.0 mm 160 W/m2
15:29 16 °C 10.4 °C 1020.3 hPa SSE 1 km/h 7.9 km/h 69.3% 0.0 mm 175 W/m2
15:34 15.9 °C 10.2 °C 1020.0 hPa South 1 km/h 7.9 km/h 69% 0.0 mm 182 W/m2
15:39 15.8 °C 10.2 °C 1020.0 hPa South 1.1 km/h 7.9 km/h 69.9% 0.0 mm 91 W/m2
15:44 15.7 °C 10.3 °C 1020.0 hPa South 1.6 km/h 12.2 km/h 70.4% 0.0 mm 53 W/m2
15:49 15.5 °C 10.3 °C 1020.3 hPa SSE 0.8 km/h 7.9 km/h 71% 0.0 mm 43 W/m2
15:54 14.6 °C 9.7 °C 1020.3 hPa South 0.6 km/h 7.9 km/h 72.4% 0.0 mm 38 W/m2
15:59 14.4 °C 9.6 °C 1020.3 hPa Calm     73.1% 0.0 mm 35 W/m2
16:04 14.4 °C 9.8 °C 1020.3 hPa Calm     74% 0.0 mm 32 W/m2
16:09 14.3 °C 9.9 °C 1020.3 hPa Calm     74.9% 0.0 mm 30 W/m2
16:14 13.9 °C 9.6 °C 1020.0 hPa Calm     75.8% 0.0 mm 28 W/m2
16:19 13.7 °C 9.6 °C 1020.3 hPa Calm     76.4% 0.0 mm 25 W/m2
16:24 13.7 °C 9.7 °C 1020.3 hPa Calm     77.2% 0.0 mm 23 W/m2
16:29 13.5 °C 10 °C 1020.3 hPa Calm     79.2% 0.0 mm 21 W/m2
16:34 12.9 °C 9.4 °C 1020.3 hPa Calm     79.6% 0.0 mm 19 W/m2
16:39 12.6 °C 9.2 °C 1020.3 hPa Calm     79.9% 0.0 mm 17 W/m2
16:44 12.6 °C 9.1 °C 1020.0 hPa Calm     78.8% 0.0 mm 14 W/m2
16:49 12.6 °C 8.9 °C 1020.0 hPa Calm     78.1% 0.0 mm 12 W/m2
16:54 12.6 °C 9 °C 1020.0 hPa Calm     78.8% 0.0 mm 9 W/m2
16:59 12.5 °C 9 °C 1020.0 hPa Calm     79% 0.0 mm 7 W/m2
17:04 12.5 °C 8.8 °C 1020.0 hPa Calm     78.2% 0.0 mm 5 W/m2
17:09 12.5 °C 8.6 °C 1020.0 hPa Calm     77.2% 0.0 mm 2 W/m2
17:14 12.4 °C 8.6 °C 1020.0 hPa Calm     77.7% 0.0 mm 0 W/m2
17:19 12.3 °C 9 °C 1020.0 hPa Calm     80.3% 0.0 mm 0 W/m2
17:24 12.2 °C 8.9 °C 1020.0 hPa Calm     79.8% 0.0 mm 0 W/m2
17:29 12.2 °C 8.5 °C 1020.0 hPa Calm     78.1% 0.0 mm 0 W/m2
17:34 12.5 °C 8.8 °C 1020.0 hPa Calm     78% 0.0 mm 0 W/m2
17:39 12.6 °C 8.9 °C 1020.3 hPa Calm     77.9% 0.0 mm 0 W/m2
17:44 12.5 °C 8.9 °C 1020.3 hPa Calm     78.3% 0.0 mm 0 W/m2
17:49 12.5 °C 9 °C 1020.0 hPa Calm     78.9% 0.0 mm 0 W/m2
17:54 12.3 °C 8.7 °C 1020.3 hPa Calm     78.4% 0.0 mm 0 W/m2
17:59 12.1 °C 8.6 °C 1020.3 hPa Calm     78.8% 0.0 mm 0 W/m2
18:04 12.1 °C 8.4 °C 1020.3 hPa Calm     77.8% 0.0 mm 0 W/m2
18:09 12.2 °C 8.3 °C 1020.3 hPa Calm     77% 0.0 mm 0 W/m2
18:14 12.2 °C 8.3 °C 1020.3 hPa Calm     77% 0.0 mm 0 W/m2
18:19 12.1 °C 8.5 °C 1020.7 hPa West 0.3 km/h 4 km/h 78.7% 0.0 mm 0 W/m2
18:24 12 °C 8.1 °C 1020.7 hPa Calm   4 km/h 77.1% 0.0 mm 0 W/m2
18:29 12 °C 8.2 °C 1020.7 hPa Calm     77.6% 0.0 mm 0 W/m2
18:34 11.8 °C 8 °C 1020.7 hPa WSW 0.3 km/h 4 km/h 77.3% 0.0 mm 0 W/m2
18:39 11.8 °C 7.9 °C 1020.7 hPa Calm   4 km/h 77% 0.0 mm 0 W/m2
18:44 11.8 °C 7.9 °C 1020.7 hPa Calm   4 km/h 77% 0.0 mm 0 W/m2
18:49 11.8 °C 7.9 °C 1020.7 hPa Calm     76.7% 0.0 mm 0 W/m2
18:54 12.1 °C 8.2 °C 1020.7 hPa Calm     77% 0.0 mm 0 W/m2
18:59 12.1 °C 8.2 °C 1020.7 hPa Calm     77% 0.0 mm 0 W/m2
19:04 12.1 °C 8.2 °C 1020.7 hPa Calm     77% 0.0 mm 0 W/m2
19:09 12.1 °C 8.1 °C 1020.7 hPa Calm     76.6% 0.0 mm 0 W/m2
19:14 12.1 °C 8 °C 1021.0 hPa Calm     76.2% 0.0 mm 0 W/m2
19:19 12.1 °C 8 °C 1021.0 hPa Calm     76.2% 0.0 mm 0 W/m2
19:24 12.1 °C 7.9 °C 1021.0 hPa Calm     75.4% 0.0 mm 0 W/m2
19:29 12.1 °C 7.8 °C 1021.0 hPa Calm     74.9% 0.0 mm 0 W/m2
19:34 12.2 °C 7.7 °C 1020.7 hPa West 0.2 km/h 4 km/h 74% 0.0 mm 0 W/m2
19:39 12.4 °C 7.9 °C 1020.7 hPa Calm   4 km/h 74% 0.0 mm 0 W/m2
19:44 12.4 °C 7.9 °C 1020.7 hPa Calm     73.9% 0.0 mm 0 W/m2
19:49 12.4 °C 7.7 °C 1021.0 hPa WNW 0.2 km/h 4 km/h 73% 0.0 mm 0 W/m2
19:54 12.6 °C 7.8 °C 1021.0 hPa Calm   4 km/h 72.3% 0.0 mm 0 W/m2
19:59 12.8 °C 7.9 °C 1020.7 hPa Calm     72% 0.0 mm 0 W/m2
20:04 12.7 °C 8 °C 1020.7 hPa Calm     72.8% 0.0 mm 0 W/m2
20:09 12.7 °C 7.9 °C 1020.7 hPa Calm     72.6% 0.0 mm 0 W/m2
20:14 12.6 °C 7.9 °C 1021.0 hPa Calm     73% 0.0 mm 0 W/m2
20:19 12.5 °C 7.8 °C 1020.7 hPa Calm     73% 0.0 mm 0 W/m2
20:24 12.5 °C 7.8 °C 1020.7 hPa Calm     73% 0.0 mm 0 W/m2
20:29 12.5 °C 7.9 °C 1020.7 hPa Calm     73.6% 0.0 mm 0 W/m2
20:34 12.3 °C 7.9 °C 1021.0 hPa Calm     74.4% 0.0 mm 0 W/m2
20:39 12.2 °C 7.6 °C 1021.0 hPa Calm     73.7% 0.0 mm 0 W/m2
20:44 12.2 °C 7.8 °C 1020.7 hPa West 0.3 km/h 4 km/h 74.8% 0.0 mm 0 W/m2
20:49 12.1 °C 7.6 °C 1021.0 hPa Calm     74.1% 0.0 mm 0 W/m2
20:54 12.1 °C 7.6 °C 1021.3 hPa Calm     74% 0.0 mm 0 W/m2
20:59 12.1 °C 7.6 °C 1021.0 hPa Calm     74.1% 0.0 mm 0 W/m2
21:04 12.1 °C 7.8 °C 1021.0 hPa Calm     75% 0.0 mm 0 W/m2
21:09 12 °C 7.7 °C 1021.0 hPa Calm     74.8% 0.0 mm 0 W/m2
21:14 11.7 °C 7.6 °C 1021.0 hPa Calm     76.1% 0.0 mm 0 W/m2
21:19 11.3 °C 7.5 °C 1021.3 hPa Calm     77.4% 0.0 mm 0 W/m2
21:24 11.3 °C 7.5 °C 1021.0 hPa Calm     77.4% 0.0 mm 0 W/m2
21:29 11.3 °C 7.3 °C 1021.3 hPa Calm     77% 0.0 mm 0 W/m2
21:34 11.4 °C 7.3 °C 1021.3 hPa Calm     76% 0.0 mm 0 W/m2
21:39 11.6 °C 7.4 °C 1021.0 hPa Calm     75.7% 0.0 mm 0 W/m2
21:44 11.5 °C 7.6 °C 1021.3 hPa Calm     77.2% 0.0 mm 0 W/m2
21:49 11.4 °C 7.6 °C 1021.3 hPa Calm     77.4% 0.0 mm 0 W/m2
21:54 11.4 °C 7.3 °C 1021.3 hPa Calm     76% 0.0 mm 0 W/m2
21:59 11.4 °C 7.3 °C 1021.3 hPa Calm     76% 0.0 mm 0 W/m2
22:04 11.4 °C 7.3 °C 1021.3 hPa Calm     76.2% 0.0 mm 0 W/m2
22:09 11.3 °C 7.5 °C 1021.3 hPa Calm     77% 0.0 mm 0 W/m2
22:14 11.2 °C 7.3 °C 1021.3 hPa Calm     76.9% 0.0 mm 0 W/m2
22:19 10.9 °C 7.2 °C 1021.3 hPa Calm     78% 0.0 mm 0 W/m2
22:24 10.9 °C 7.2 °C 1021.3 hPa Calm     77.9% 0.0 mm 0 W/m2
22:29 10.9 °C 7.2 °C 1021.3 hPa Calm     78% 0.0 mm 0 W/m2
22:34 10.8 °C 7.3 °C 1021.3 hPa Calm     78.8% 0.0 mm 0 W/m2
22:39 10.2 °C 6.9 °C 1021.3 hPa Calm     80% 0.0 mm 0 W/m2
22:44 10.3 °C 6.8 °C 1021.3 hPa Calm     79.3% 0.0 mm 0 W/m2
22:49 10.3 °C 6.7 °C 1021.3 hPa Calm     78.8% 0.0 mm 0 W/m2
22:54 10.3 °C 6.8 °C 1021.3 hPa Calm     79% 0.0 mm 0 W/m2
22:59 10.5 °C 7 °C 1021.3 hPa WSW 0.1 km/h 4 km/h 79% 0.0 mm 0 W/m2
23:04 10.5 °C 7.2 °C 1021.3 hPa Calm   4 km/h 79.8% 0.0 mm 0 W/m2
23:09 10.4 °C 7.3 °C 1021.3 hPa Calm   4 km/h 80.6% 0.0 mm 0 W/m2
23:14 10.4 °C 7.1 °C 1021.3 hPa Calm     79.8% 0.0 mm 0 W/m2
23:19 10.4 °C 6.9 °C 1021.3 hPa Calm     79% 0.0 mm 0 W/m2
23:24 10.4 °C 6.9 °C 1021.3 hPa Calm     78.9% 0.0 mm 0 W/m2
23:29 10.4 °C 7 °C 1021.3 hPa Calm     79.4% 0.0 mm 0 W/m2
23:34 10.4 °C 7.2 °C 1021.3 hPa Calm     80.3% 0.0 mm 0 W/m2
23:39 10.4 °C 6.9 °C 1021.3 hPa Calm     79% 0.0 mm 0 W/m2
23:44 10.4 °C 6.8 °C 1021.3 hPa Calm     78.2% 0.0 mm 0 W/m2
23:49 10.4 °C 6.9 °C 1021.3 hPa Calm     78.9% 0.0 mm 0 W/m2
23:54 10.4 °C 7 °C 1021.3 hPa Calm     79.4% 0.0 mm 0 W/m2
23:59 10.2 °C 6.9 °C 1021.3 hPa Calm     80% 0.0 mm 0 W/m2
Juneau County Weather
Compliments of Weather Underground - 2 mb